Time;durP1;ratioP1;P1;durP2;ratioP2;P2;SDS_P1;SDS_P2;PMS_P1;PMS_P2;Temp;Humidity;BMP_temperature;BMP_pressure;BME280_temperature;BME280_humidity;BME280_pressure;Samples;Min_cycle;Max_cycle;Signal;HPM_P1;HPM_P2
2022/04/08 00:01:26;;;;;;;4.93;1.00;;;;;;;2.96;83.12;98986.38;6285102;22;20000;-73
2022/04/08 00:03:52;;;;;;;3.70;0.60;;;;;;;2.84;83.29;98966.75;6256701;22;20102;-73
2022/04/08 00:06:21;;;;;;;4.70;0.57;;;;;;;2.82;83.08;98963.50;6281999;22;20004;-73
2022/04/08 00:08:47;;;;;;;2.13;0.52;;;;;;;2.89;83.05;98966.81;6257375;22;20003;-74
2022/04/08 00:11:13;;;;;;;1.48;0.70;;;;;;;3.02;83.13;98978.31;6280696;22;20307;-73
2022/04/08 00:13:38;;;;;;;2.05;0.60;;;;;;;2.97;83.40;98966.38;6284948;22;20000;-74
2022/04/08 00:16:09;;;;;;;2.80;0.60;;;;;;;2.92;83.89;98963.63;6283612;22;20035;-73
2022/04/08 00:18:36;;;;;;;7.32;0.57;;;;;;;2.96;84.13;98975.56;6282100;22;20027;-73
2022/04/08 00:21:03;;;;;;;4.40;0.60;;;;;;;3.01;83.72;98976.66;6258080;22;20027;-72
2022/04/08 00:23:31;;;;;;;1.00;0.50;;;;;;;2.97;83.76;98965.56;6284134;22;20311;-75
2022/04/08 00:25:57;;;;;;;2.42;0.60;;;;;;;2.99;83.69;98973.41;6233515;22;20074;-73
2022/04/08 00:28:22;;;;;;;1.23;0.40;;;;;;;2.97;83.98;98966.38;6230184;22;20430;-74
2022/04/08 00:30:48;;;;;;;2.28;0.63;;;;;;;3.01;84.32;98971.25;6258123;22;20053;-74
2022/04/08 00:33:14;;;;;;;2.25;0.47;;;;;;;2.93;84.11;98965.22;6284053;22;20030;-74
2022/04/08 00:35:39;;;;;;;4.57;0.52;;;;;;;2.96;84.63;98975.56;6250415;22;20621;-74
2022/04/08 00:38:06;;;;;;;6.57;0.82;;;;;;;2.90;84.50;98959.53;6257847;22;20094;-73
2022/04/08 00:40:39;;;;;;;2.65;0.43;;;;;;;2.90;84.67;98954.94;6231013;22;20011;-74
2022/04/08 00:43:16;;;;;;;2.17;0.60;;;;;;;2.82;85.20;98947.28;6259939;22;20010;-74
2022/04/08 00:45:42;;;;;;;0.80;0.35;;;;;;;2.89;85.14;98947.94;6283502;22;20081;-74
2022/04/08 00:48:09;;;;;;;2.63;0.60;;;;;;;2.95;85.47;98941.50;6285838;22;20000;-74
2022/04/08 00:50:37;;;;;;;2.72;0.60;;;;;;;3.05;85.37;98948.09;6254581;22;20039;-74
2022/04/08 00:53:02;;;;;;;0.82;0.50;;;;;;;3.07;84.96;98943.28;6283368;22;20038;-73
2022/04/08 00:55:28;;;;;;;4.47;0.52;;;;;;;3.11;85.67;98947.06;6231552;22;20329;-73
2022/04/08 00:57:54;;;;;;;2.17;0.75;;;;;;;3.13;85.78;98942.25;6232823;22;20033;-72
2022/04/08 01:00:22;;;;;;;2.20;0.65;;;;;;;3.08;85.40;98928.69;6283674;22;19999;-73
2022/04/08 01:02:48;;;;;;;2.10;0.65;;;;;;;3.17;85.50;98931.75;6283016;22;20010;-72
2022/04/08 01:05:14;;;;;;;5.65;0.90;;;;;;;3.16;85.10;98930.94;6282508;22;20073;-73
2022/04/08 01:07:39;;;;;;;2.63;1.00;;;;;;;3.19;84.66;98945.81;6281641;22;20034;-73
2022/04/08 01:10:05;;;;;;;3.03;0.70;;;;;;;3.14;85.48;98931.19;6283030;22;20004;-73
2022/04/08 01:12:33;;;;;;;2.47;0.50;;;;;;;3.07;87.12;98927.06;6285885;22;20003;-74
2022/04/08 01:15:00;;;;;;;1.77;0.43;;;;;;;2.87;88.25;98906.84;6256242;22;20012;-73
2022/04/08 01:17:26;;;;;;;9.13;0.80;;;;;;;2.82;89.01;98909.50;6283050;22;20054;-73
2022/04/08 01:19:53;;;;;;;2.05;0.50;;;;;;;2.72;88.93;98904.78;6285958;22;20010;-73
2022/04/08 01:22:19;;;;;;;1.42;0.55;;;;;;;2.78;88.35;98919.16;6287657;22;19999;-74
2022/04/08 01:24:51;;;;;;;1.38;0.50;;;;;;;2.71;88.36;98924.75;6258734;22;20016;-75
2022/04/08 01:27:29;;;;;;;;;;;;;;;;;;;;;
2022/04/08 01:29:55;;;;;;;2.47;0.50;;;;;;;2.58;88.06;98915.13;6283880;22;20595;-74
2022/04/08 01:32:20;;;;;;;4.28;1.08;;;;;;;2.51;88.25;98909.13;6258430;22;20004;-73
2022/04/08 01:34:49;;;;;;;3.45;0.60;;;;;;;2.54;88.42;98914.03;6231156;22;20012;-73
2022/04/08 01:37:18;;;;;;;1.30;0.55;;;;;;;2.65;88.30;98925.75;6285985;22;20013;-74
2022/04/08 01:39:46;;;;;;;1.00;0.57;;;;;;;2.69;88.03;98934.19;6256586;22;20524;-73
2022/04/08 01:42:21;;;;;;;8.65;0.88;;;;;;;2.66;88.32;98926.56;6258329;22;20007;-73
2022/04/08 01:44:48;;;;;;;3.22;0.75;;;;;;;2.74;88.03;98937.72;6285603;22;20065;-74
2022/04/08 01:47:13;;;;;;;1.90;0.50;;;;;;;2.76;88.39;98937.47;6253066;22;20007;-73
2022/04/08 01:49:39;;;;;;;1.30;0.70;;;;;;;2.66;88.97;98900.41;6229876;22;20011;-74
2022/04/08 01:52:07;;;;;;;2.60;0.50;;;;;;;2.75;90.19;98914.28;6229950;22;20011;-73
2022/04/08 01:54:35;;;;;;;1.55;0.40;;;;;;;2.83;90.62;98921.91;6252183;22;20023;-73
2022/04/08 01:57:00;;;;;;;2.15;0.40;;;;;;;2.86;92.01;98920.59;6258263;22;20017;-75
2022/04/08 01:59:26;;;;;;;0.40;0.30;;;;;;;2.88;92.69;98919.28;6230619;22;20012;-74
2022/04/08 02:01:51;;;;;;;0.93;0.30;;;;;;;2.80;92.95;98884.63;6233338;22;20027;-73
2022/04/08 02:04:17;;;;;;;0.77;0.25;;;;;;;2.91;93.57;98890.97;6258438;22;20031;-72
2022/04/08 02:06:43;;;;;;;0.30;0.30;;;;;;;2.97;93.62;98885.34;6230267;22;20018;-74
2022/04/08 02:09:11;;;;;;;0.10;0.10;;;;;;;3.01;94.00;98879.44;6285583;22;20010;-74
2022/04/08 02:11:37;;;;;;;3.75;0.75;;;;;;;3.04;94.17;98873.53;6285140;22;20029;-73
2022/04/08 02:14:04;;;;;;;4.85;1.33;;;;;;;2.94;93.87;98849.94;6258599;22;20011;-73
2022/04/08 02:16:29;;;;;;;0.85;0.40;;;;;;;3.04;94.17;98851.91;6257735;22;20011;-73
2022/04/08 02:18:55;;;;;;;2.33;0.70;;;;;;;3.04;93.57;98841.94;6283127;22;20046;-75
2022/04/08 02:21:21;;;;;;;2.38;0.82;;;;;;;3.06;92.78;98844.41;6229634;22;20012;-73
2022/04/08 02:23:48;;;;;;;5.13;0.77;;;;;;;3.10;90.99;98854.44;6257855;22;20015;-74
2022/04/08 02:26:16;;;;;;;3.55;1.23;;;;;;;3.13;89.85;98861.22;6231660;22;20000;-74
2022/04/08 02:28:45;;;;;;;2.30;0.98;;;;;;;3.12;89.14;98846.06;6256151;22;20034;-72
2022/04/08 02:31:30;;;;;;;5.25;0.63;;;;;;;2.97;88.98;98825.94;6284452;22;20002;-74
2022/04/08 02:33:56;;;;;;;2.22;0.70;;;;;;;3.03;90.52;98826.00;6257709;22;20082;-73
2022/04/08 02:36:21;;;;;;;2.28;0.65;;;;;;;3.08;91.01;98826.88;6283202;22;20274;-74
2022/04/08 02:38:47;;;;;;;0.73;0.40;;;;;;;3.04;91.74;98819.50;6285527;22;20027;-74
2022/04/08 02:41:19;;;;;;;0.63;0.40;;;;;;;3.08;92.42;98817.94;6255513;22;20000;-74
2022/04/08 02:43:45;;;;;;;5.72;0.88;;;;;;;3.04;92.47;98814.09;6286155;22;20004;-73
2022/04/08 02:46:20;;;;;;;;;;;;;;;;;;;;;
2022/04/08 02:48:46;;;;;;;3.47;0.73;;;;;;;2.93;91.86;98819.41;6258953;22;20630;-73
2022/04/08 02:51:12;;;;;;;2.92;0.82;;;;;;;2.97;91.59;98839.44;6257908;22;20000;-74
2022/04/08 02:53:37;;;;;;;0.73;0.50;;;;;;;2.89;92.55;98815.63;6284915;22;20008;-75
2022/04/08 02:56:03;;;;;;;3.42;0.77;;;;;;;2.82;92.20;98809.59;6256171;22;20038;-73
2022/04/08 02:58:31;;;;;;;1.63;0.40;;;;;;;2.93;92.54;98824.81;6284411;22;20004;-74
2022/04/08 03:00:59;;;;;;;0.73;0.40;;;;;;;2.82;93.28;98809.59;6282424;22;20023;-74
2022/04/08 03:03:26;;;;;;;0.32;0.28;;;;;;;2.93;93.98;98807.81;6283928;22;20038;-73
2022/04/08 03:05:52;;;;;;;0.95;0.30;;;;;;;2.92;94.31;98784.56;6283588;22;20003;-73
2022/04/08 03:08:20;;;;;;;0.40;0.40;;;;;;;2.95;94.90;98774.09;6258158;22;20063;-74
2022/04/08 03:10:46;;;;;;;0.82;0.52;;;;;;;3.06;94.74;98787.69;6231256;22;20142;-73
2022/04/08 03:13:12;;;;;;;1.42;0.50;;;;;;;3.03;94.82;98782.78;6258263;22;20011;-75
2022/04/08 03:15:39;;;;;;;1.52;0.77;;;;;;;2.95;94.72;98763.28;6258531;22;20007;-74
2022/04/08 03:18:07;;;;;;;0.47;0.40;;;;;;;3.01;94.62;98772.25;6285037;22;20011;-74
2022/04/08 03:20:32;;;;;;;5.22;0.70;;;;;;;3.07;93.52;98787.41;6257058;22;20008;-74
2022/04/08 03:23:00;;;;;;;0.77;0.60;;;;;;;3.01;93.46;98766.00;6258398;22;20010;-74
2022/04/08 03:25:25;;;;;;;2.35;0.65;;;;;;;3.01;94.04;98755.22;6285562;22;20011;-74
2022/04/08 03:27:51;;;;;;;2.58;0.75;;;;;;;3.10;93.57;98770.69;6259259;22;20321;-73
2022/04/08 03:30:17;;;;;;;1.15;0.57;;;;;;;3.09;93.98;98768.25;6256012;22;20038;-72
2022/04/08 03:32:42;;;;;;;0.77;0.35;;;;;;;3.03;94.50;98763.88;6256823;22;20011;-73
2022/04/08 03:35:08;;;;;;;0.32;0.22;;;;;;;3.11;94.76;98771.50;6231660;22;20365;-74
2022/04/08 03:37:34;;;;;;;1.05;0.45;;;;;;;3.09;95.33;98749.34;6260447;22;20035;-73
2022/04/08 03:39:59;;;;;;;0.40;0.28;;;;;;;3.17;95.33;98757.00;6259996;22;20004;-73
2022/04/08 03:42:25;;;;;;;0.55;0.35;;;;;;;3.26;96.18;98750.03;6257839;22;20063;-74
2022/04/08 03:45:01;;;;;;;0.65;0.40;;;;;;;3.29;95.45;98752.22;6288202;22;20007;-73
2022/04/08 03:47:26;;;;;;;0.93;0.55;;;;;;;3.30;95.95;98732.22;6254743;22;20057;-73
2022/04/08 03:49:51;;;;;;;3.95;1.17;;;;;;;3.30;95.41;98736.78;6286566;22;20015;-74
2022/04/08 03:52:22;;;;;;;4.45;1.35;;;;;;;3.26;94.36;98714.91;6260968;22;20015;-75
2022/04/08 03:54:47;;;;;;;2.17;0.93;;;;;;;3.36;94.23;98734.94;6286526;22;20307;-74
2022/04/08 03:57:13;;;;;;;1.15;0.50;;;;;;;3.20;94.56;98705.16;6287633;22;19999;-73
2022/04/08 03:59:38;;;;;;;2.80;0.60;;;;;;;3.24;95.35;98710.81;6283124;22;19996;-73
2022/04/08 04:02:07;;;;;;;1.65;0.40;;;;;;;3.39;95.47;98729.03;6233890;22;20007;-74
2022/04/08 04:04:33;;;;;;;0.32;0.32;;;;;;;3.38;95.50;98719.31;6257719;22;20464;-74
2022/04/08 04:06:59;;;;;;;0.85;0.30;;;;;;;3.44;95.73;98726.38;6229933;22;20010;-74
2022/04/08 04:09:24;;;;;;;0.75;0.50;;;;;;;3.47;95.96;98715.03;6232969;22;20415;-74
2022/04/08 04:11:50;;;;;;;0.32;0.30;;;;;;;3.44;96.04;98702.03;6285250;22;20366;-74
2022/04/08 04:14:16;;;;;;;0.35;0.20;;;;;;;3.54;95.85;98696.69;6288364;22;20000;-73
2022/04/08 04:16:41;;;;;;;0.47;0.30;;;;;;;3.57;96.02;98693.47;6284062;22;20007;-72
2022/04/08 04:19:07;;;;;;;0.93;0.32;;;;;;;3.57;96.23;98687.25;6283613;22;20030;-72
2022/04/08 04:21:33;;;;;;;0.20;0.20;;;;;;;3.60;96.42;98692.13;6232715;22;20065;-74
2022/04/08 04:24:00;;;;;;;0.20;0.20;;;;;;;3.56;96.33;98691.84;6258636;22;20026;-73
2022/04/08 04:26:28;;;;;;;0.30;0.17;;;;;;;3.62;96.18;98690.81;6285029;22;20004;-73
2022/04/08 04:28:54;;;;;;;0.20;0.20;;;;;;;3.57;96.42;98687.25;6233100;22;20038;-74
2022/04/08 04:31:21;;;;;;;0.77;0.35;;;;;;;3.57;96.13;98688.06;6259088;22;19999;-73
2022/04/08 04:33:47;;;;;;;0.60;0.20;;;;;;;3.62;96.60;98685.41;6255239;22;20052;-74
2022/04/08 04:36:16;;;;;;;0.20;0.20;;;;;;;3.59;96.26;98680.53;6259881;22;20007;-75
2022/04/08 04:38:41;;;;;;;0.50;0.30;;;;;;;3.59;97.01;98694.03;6265057;22;20099;-75
2022/04/08 04:41:07;;;;;;;0.45;0.20;;;;;;;3.55;96.74;98684.81;6236455;22;20007;-75
2022/04/08 04:43:34;;;;;;;0.52;0.40;;;;;;;3.44;96.33;98666.91;6258634;22;20090;-76
2022/04/08 04:46:05;;;;;;;0.25;0.25;;;;;;;3.52;96.84;98679.09;6232559;22;20430;-75
2022/04/08 04:48:30;;;;;;;1.17;0.50;;;;;;;3.61;96.37;98702.69;6261064;22;20059;-75
2022/04/08 04:50:59;;;;;;;0.30;0.30;;;;;;;3.50;96.82;98676.66;6257140;22;20010;-74
2022/04/08 04:53:24;;;;;;;0.40;0.35;;;;;;;3.59;96.55;98690.50;6232748;22;20008;-73
2022/04/08 04:55:50;;;;;;;0.28;0.20;;;;;;;3.62;97.04;98698.91;6233319;22;20030;-73
2022/04/08 04:58:15;;;;;;;0.20;0.20;;;;;;;3.62;97.20;98698.91;6258617;22;20003;-72
2022/04/08 05:00:41;;;;;;;0.20;0.20;;;;;;;3.61;96.87;98691.06;6281484;22;20073;-73
2022/04/08 05:03:08;;;;;;;0.20;0.20;;;;;;;3.59;97.43;98685.94;6285109;22;20011;-74
2022/04/08 05:05:34;;;;;;;0.25;0.20;;;;;;;3.61;97.48;98681.06;6283224;22;20079;-73
2022/04/08 05:08:04;;;;;;;0.55;0.30;;;;;;;3.63;97.52;98680.78;6253949;22;20038;-73
2022/04/08 05:10:32;;;;;;;0.28;0.28;;;;;;;3.63;97.43;98670.78;6256216;22;19996;-74
2022/04/08 05:13:01;;;;;;;0.50;0.30;;;;;;;3.66;97.18;98656.78;6255126;22;20027;-73
2022/04/08 05:15:28;;;;;;;0.50;0.30;;;;;;;3.67;97.46;98654.88;6233821;22;20019;-73
2022/04/08 05:17:54;;;;;;;1.15;0.50;;;;;;;3.64;97.54;98639.19;6242983;22;20051;-72
2022/04/08 05:20:19;;;;;;;1.73;0.70;;;;;;;3.65;96.73;98636.22;6253465;23;20015;-73
2022/04/08 05:22:45;;;;;;;1.02;0.63;;;;;;;3.67;95.73;98646.75;6226851;23;20012;-73
2022/04/08 05:25:11;;;;;;;2.67;0.80;;;;;;;3.53;96.24;98624.78;6252216;23;20069;-73
2022/04/08 05:27:45;;;;;;;2.10;0.57;;;;;;;3.59;96.35;98631.88;6223908;23;20004;-74
2022/04/08 05:30:16;;;;;;;0.50;0.50;;;;;;;3.44;96.00;98613.66;6227196;23;20529;-74
2022/04/08 05:32:41;;;;;;;1.13;0.60;;;;;;;3.52;96.25;98630.47;6251383;23;20007;-73
2022/04/08 05:35:10;;;;;;;2.15;0.65;;;;;;;3.51;96.40;98618.03;6251246;23;20000;-73
2022/04/08 05:37:42;;;;;;;1.10;0.40;;;;;;;3.50;96.52;98617.22;6228820;23;20335;-74
2022/04/08 05:40:13;;;;;;;0.90;0.63;;;;;;;3.58;96.74;98619.41;6226611;23;20000;-74
2022/04/08 05:42:44;;;;;;;0.95;0.43;;;;;;;3.65;96.39;98614.59;6227668;23;20003;-73
2022/04/08 05:45:16;;;;;;;2.20;1.08;;;;;;;3.69;95.89;98616.75;6225738;23;20082;-73
2022/04/08 05:47:50;;;;;;;2.63;0.50;;;;;;;3.55;96.00;98597.50;6202261;23;20327;-76
2022/04/08 05:50:19;;;;;;;5.37;0.70;;;;;;;3.65;95.81;98611.88;6227389;23;20171;-74
2022/04/08 05:52:57;;;;;;;;;;;;;;;;;;;;;
2022/04/08 05:55:33;;;;;;;2.03;0.77;;;;;;;3.62;95.60;98609.72;6254061;23;20043;-73
2022/04/08 05:57:58;;;;;;;2.20;0.80;;;;;;;3.54;95.31;98604.81;6254874;23;19996;-73
2022/04/08 06:00:46;;;;;;;6.15;0.85;;;;;;;3.53;95.82;98584.25;6253362;23;20278;-74
2022/04/08 06:03:21;;;;;;;;;;;;;;;;;;;;;
2022/04/08 06:05:58;;;;;;;0.82;0.40;;;;;;;3.70;95.66;98599.47;6254699;23;20024;-73
2022/04/08 06:08:27;;;;;;;6.00;0.88;;;;;;;3.81;95.84;98606.50;6255803;23;20060;-71
2022/04/08 06:10:55;;;;;;;2.92;0.65;;;;;;;3.83;94.81;98612.47;6253315;23;20007;-74
2022/04/08 06:13:24;;;;;;;4.00;0.70;;;;;;;3.81;95.07;98601.94;6255519;23;20004;-76
2022/04/08 06:15:51;;;;;;;1.95;0.63;;;;;;;3.83;94.87;98590.84;6228655;23;20019;-73
2022/04/08 06:18:18;;;;;;;0.65;0.50;;;;;;;3.92;94.87;98591.13;6269197;22;20024;-74
2022/04/08 06:20:46;;;;;;;1.30;0.60;;;;;;;3.93;94.91;98577.34;6258428;22;20494;-73
2022/04/08 06:26:27;;;;;;;0.40;0.30;;;;;;;4.02;95.57;98564.91;6238269;22;20318;-77
2022/04/08 06:29:04;;;;;;;;;;;;;;;;;;;;;
2022/04/08 06:31:42;;;;;;;0.77;0.60;;;;;;;4.24;94.34;98580.09;6204483;22;20038;-72
2022/04/08 06:34:08;;;;;;;0.50;0.45;;;;;;;4.27;95.05;98570.63;6256543;22;20046;-71
2022/04/08 06:36:33;;;;;;;1.38;0.50;;;;;;;4.20;94.67;98543.81;6283364;22;20372;-73
2022/04/08 06:38:58;;;;;;;2.22;0.60;;;;;;;4.31;94.40;98556.28;6282259;22;20008;-73
2022/04/08 06:41:27;;;;;;;1.80;0.60;;;;;;;4.37;94.78;98560.59;6256785;22;20011;-74
2022/04/08 06:44:00;;;;;;;1.85;0.50;;;;;;;4.21;94.34;98529.22;6259200;22;20007;-75
2022/04/08 06:46:31;;;;;;;1.45;0.80;;;;;;;4.26;93.54;98547.34;6284939;22;20008;-74
2022/04/08 06:49:02;;;;;;;1.08;0.70;;;;;;;4.22;92.94;98549.78;6258246;22;20007;-74
2022/04/08 06:51:28;;;;;;;3.97;1.15;;;;;;;4.19;92.85;98547.59;6232845;22;20087;-73
2022/04/08 06:53:53;;;;;;;5.28;1.15;;;;;;;4.15;92.33;98550.06;6233934;22;20023;-74
2022/04/08 06:56:19;;;;;;;1.83;0.80;;;;;;;4.13;92.73;98551.41;6231796;22;20015;-73
2022/04/08 06:58:50;;;;;;;1.52;0.57;;;;;;;4.13;93.21;98537.88;6258818;22;20018;-73
2022/04/08 07:01:16;;;;;;;2.10;0.70;;;;;;;4.16;93.28;98531.91;6230359;22;20086;-73
2022/04/08 07:03:41;;;;;;;1.50;0.55;;;;;;;4.35;93.24;98546.53;6258070;22;20441;-72
2022/04/08 07:06:07;;;;;;;3.63;1.17;;;;;;;4.31;93.36;98536.53;6261703;22;20011;-74
2022/04/08 07:08:34;;;;;;;1.60;1.00;;;;;;;4.37;93.42;98536.25;6238145;22;20031;-72
2022/04/08 07:11:02;;;;;;;1.75;0.70;;;;;;;4.43;93.17;98533.56;6214043;22;20049;-73
2022/04/08 07:13:28;;;;;;;2.35;0.50;;;;;;;4.53;94.03;98541.66;6260100;22;20060;-72
2022/04/08 07:15:54;;;;;;;1.35;0.55;;;;;;;4.56;93.67;98541.13;6260586;22;20023;-73
2022/04/08 07:18:22;;;;;;;2.05;0.70;;;;;;;4.67;93.59;98553.56;6288248;22;20079;-73
2022/04/08 07:20:47;;;;;;;0.77;0.57;;;;;;;4.67;93.36;98548.16;6260008;22;20012;-73
2022/04/08 07:23:13;;;;;;;2.25;0.70;;;;;;;4.71;93.36;98548.41;6288035;22;20038;-73
2022/04/08 07:25:39;;;;;;;1.23;0.50;;;;;;;4.74;93.14;98536.22;6233816;22;20010;-73
2022/04/08 07:28:05;;;;;;;2.15;0.70;;;;;;;4.83;92.91;98537.28;6287672;22;20082;-73
2022/04/08 07:30:33;;;;;;;4.35;0.50;;;;;;;4.97;92.77;98551.88;6286502;22;20011;-73
2022/04/08 07:33:01;;;;;;;1.88;0.68;;;;;;;4.98;92.74;98545.38;6261008;22;20035;-72
2022/04/08 07:35:49;;;;;;;1.45;0.57;;;;;;;4.98;92.84;98545.38;6236203;22;20007;-73
2022/04/08 07:38:15;;;;;;;0.40;0.40;;;;;;;5.15;92.72;98546.94;6287844;22;20081;-73
2022/04/08 07:40:48;;;;;;;0.95;0.50;;;;;;;5.28;92.59;98565.31;6236311;22;20015;-74
2022/04/08 07:43:31;;;;;;;;;;;;;;;;;;;;;
2022/04/08 07:45:56;;;;;;;2.33;0.93;;;;;;;4.97;90.92;98538.31;6279275;22;20689;-75
2022/04/08 07:48:34;;;;;;;;;;;;;;;;;;;;;
2022/04/08 07:51:00;;;;;;;13.00;3.45;;;;;;;4.99;90.68;98549.69;6287698;22;20075;-73
2022/04/08 07:53:41;;;;;;;8.05;3.13;;;;;;;5.20;89.59;98582.16;6285348;22;20015;-72
2022/04/08 07:56:12;;;;;;;4.72;2.88;;;;;;;5.06;91.18;98531.25;6288633;22;20007;-76
2022/04/08 07:58:37;;;;;;;3.40;2.30;;;;;;;5.51;91.39;98571.22;6287107;22;20015;-77
2022/04/08 08:01:05;;;;;;;5.20;1.35;;;;;;;5.49;89.94;98547.09;6252796;22;20008;-74
2022/04/08 08:03:34;;;;;;;0.80;0.80;;;;;;;5.75;90.92;98565.91;6249567;22;20897;-76
2022/04/08 08:06:01;;;;;;;1.42;0.75;;;;;;;5.94;90.12;98560.66;6287375;22;20000;-75
2022/04/08 08:08:27;;;;;;;1.00;0.60;;;;;;;6.08;89.94;98564.41;6260204;22;19999;-71
2022/04/08 08:10:55;;;;;;;1.08;0.40;;;;;;;6.22;89.92;98564.59;6260858;22;20003;-73
2022/04/08 08:13:21;;;;;;;1.10;0.57;;;;;;;6.49;89.94;98582.28;6261058;22;20008;-70
2022/04/08 08:15:47;;;;;;;0.73;0.50;;;;;;;6.59;89.26;98584.91;6287065;22;20018;-71
2022/04/08 08:18:13;;;;;;;1.48;0.50;;;;;;;6.64;89.15;98575.91;6284899;22;20038;-71
2022/04/08 08:20:50;;;;;;;0.55;0.50;;;;;;;6.71;89.33;98575.59;6260479;22;20087;-73
2022/04/08 08:23:19;;;;;;;0.45;0.45;;;;;;;6.86;88.41;98577.34;6258487;22;20039;-75
2022/04/08 08:25:44;;;;;;;0.30;0.30;;;;;;;6.93;88.31;98575.09;6254438;22;20359;-76
2022/04/08 08:28:13;;;;;;;1.30;0.73;;;;;;;6.98;88.75;98564.19;6259266;22;20003;-74
2022/04/08 08:30:38;;;;;;;5.30;1.25;;;;;;;7.12;88.89;98581.41;6283180;22;20058;-73
2022/04/08 08:33:07;;;;;;;0.30;0.30;;;;;;;7.08;88.50;98558.66;6259419;22;20008;-75
2022/04/08 08:35:34;;;;;;;1.33;0.70;;;;;;;7.29;87.97;98591.03;6257723;22;20119;-73
2022/04/08 08:38:07;;;;;;;4.45;0.70;;;;;;;7.23;87.75;98576.69;6285303;22;20077;-73
2022/04/08 08:40:33;;;;;;;2.65;0.65;;;;;;;7.20;87.44;98560.97;6258379;22;20530;-74
2022/04/08 08:43:00;;;;;;;3.13;0.82;;;;;;;7.40;87.58;98576.22;6283373;22;20015;-73
2022/04/08 08:45:37;;;;;;;1.75;0.80;;;;;;;7.50;86.74;98584.28;6286925;22;20064;-74
2022/04/08 08:48:05;;;;;;;3.40;1.35;;;;;;;7.73;85.71;98600.03;6260137;22;20079;-75
2022/04/08 08:50:31;;;;;;;2.75;1.20;;;;;;;7.85;84.92;98587.59;6281876;22;19999;-73
2022/04/08 08:53:00;;;;;;;6.15;1.20;;;;;;;8.04;84.96;98597.72;6256307;22;20004;-74
2022/04/08 08:55:35;;;;;;;1.83;1.00;;;;;;;8.39;84.98;98622.81;6230135;22;20036;-74
2022/04/08 08:58:30;;;;;;;1.23;0.95;;;;;;;8.43;84.72;98590.34;6285555;22;20014;-72
2022/04/08 09:00:57;;;;;;;1.88;0.98;;;;;;;8.66;84.03;98599.50;6282207;22;20320;-73
2022/04/08 09:03:29;;;;;;;3.85;1.13;;;;;;;8.88;83.62;98613.31;6285117;22;20039;-73
2022/04/08 09:05:55;;;;;;;2.28;1.25;;;;;;;9.09;83.11;98612.97;6232593;22;20015;-75
2022/04/08 09:08:37;;;;;;;2.33;0.95;;;;;;;9.37;82.98;98623.91;6205022;22;20012;-74
2022/04/08 09:11:04;;;;;;;1.60;1.10;;;;;;;9.54;82.01;98615.94;6258348;22;20023;-74
2022/04/08 09:13:56;;;;;;;3.80;1.13;;;;;;;9.62;81.11;98608.94;6258211;22;20003;-73
2022/04/08 09:16:37;;;;;;;;;;;;;;;;;;;;;
2022/04/08 09:19:12;;;;;;;4.18;1.48;;;;;;;9.75;79.94;98605.41;6285020;22;20035;-73
2022/04/08 09:21:50;;;;;;;2.95;1.20;;;;;;;10.05;79.71;98648.75;6281832;22;20058;-72
2022/04/08 09:24:22;;;;;;;2.80;1.05;;;;;;;10.08;78.57;98627.09;6284504;22;20037;-72
2022/04/08 09:29:37;;;;;;;4.95;1.60;;;;;;;10.48;76.02;98640.16;6274069;22;20007;-73
2022/04/08 09:32:22;;;;;;;4.30;1.60;;;;;;;10.59;75.64;98636.09;6256592;22;20505;-71
2022/04/08 09:34:50;;;;;;;;;;;;;;;10.90;77.28;98662.69;6281483;22;20060;-73
2022/04/08 09:37:49;;;;;;;7.00;2.45;;;;;;;10.89;74.43;98652.06;6286388;22;19907;-72
2022/04/08 09:40:33;;;;;;;6.50;2.83;;;;;;;11.10;73.88;98652.38;6256832;22;20846;-71
2022/04/08 09:43:02;;;;;;;4.47;2.28;;;;;;;11.41;74.22;98660.56;6256429;22;20008;-71
2022/04/08 09:46:06;;;;;;;3.08;1.70;;;;;;;11.80;75.14;98655.44;6243171;22;19987;-73
2022/04/08 09:55:22;;;;;;;7.97;2.00;;;;;;;13.62;72.56;98674.94;6220735;23;20035;-73
2022/04/08 09:58:13;;;;;;;7.03;3.33;;;;;;;14.00;69.25;98676.84;6269366;22;20015;-74
2022/04/08 10:00:51;;;;;;;3.28;2.05;;;;;;;14.24;68.30;98669.97;6260209;22;20059;-72
2022/04/08 10:03:23;;;;;;;3.55;1.50;;;;;;;14.95;67.43;98676.53;6283524;22;20003;-74
2022/04/08 10:06:16;;;;;;;3.30;1.73;;;;;;;15.43;64.64;98680.59;6282553;22;20003;-73
2022/04/08 10:08:52;;;;;;;5.93;1.33;;;;;;;15.84;64.13;98692.63;6270834;22;20011;-72
2022/04/08 10:11:44;;;;;;;6.78;1.40;;;;;;;16.03;63.71;98702.28;6257862;22;20019;-72
2022/04/08 10:14:59;;;;;;;;;;;;;;;;;;;;;
2022/04/08 10:17:35;;;;;;;;;;;;;;;17.03;68.85;98706.50;6283321;22;20031;-73
2022/04/08 10:20:21;;;;;;;4.68;1.00;;;;;;;17.21;62.19;98705.03;6232025;22;19960;-73
2022/04/08 10:23:15;;;;;;;;;;;;;;;;;;;;;
2022/04/08 10:26:05;;;;;;;4.38;1.00;;;;;;;18.45;58.07;98712.50;6280896;22;20126;-73
2022/04/08 10:31:35;;;;;;;3.08;0.80;;;;;;;19.67;51.50;98690.03;6248606;22;20015;-73
2022/04/08 10:37:36;;;;;;;1.80;0.82;;;;;;;18.85;54.82;98661.53;6160156;23;20106;-73
2022/04/08 10:41:12;;;;;;;;;;;;;;;;;;;;;
2022/04/08 10:47:40;;;;;;;;;;;;;;;;;;;;;
2022/04/08 10:54:06;;;;;;;2.45;0.80;;;;;;;30.00;34.42;98697.63;6101119;23;20018;-73
2022/04/08 11:00:17;;;;;;;3.63;0.82;;;;;;;30.91;24.31;98727.88;5983625;24;20040;-72
2022/04/08 11:02:43;;;;;;;7.15;0.70;;;;;;;31.53;22.63;98690.19;6160480;22;20457;-72
2022/04/08 11:12:17;;;;;;;;;;;;;;;;;;;;;
2022/04/08 11:15:41;;;;;;;1.67;0.40;;;;;;;25.57;27.84;98683.47;6071794;23;20049;-71
2022/04/08 11:20:51;;;;;;;8.20;3.20;;;;;;;23.73;27.76;98702.66;6068278;23;20006;-76
2022/04/08 11:27:01;;;;;;;;;;;;;;;;;;;;;
2022/04/08 11:29:56;;;;;;;0.95;0.45;;;;;;;26.82;26.45;98727.63;6161777;23;20024;-75
2022/04/08 11:32:51;;;;;;;1.13;0.45;;;;;;;29.43;23.94;98712.56;6254820;22;20007;-72
2022/04/08 11:35:38;;;;;;;7.03;0.70;;;;;;;30.77;20.88;98735.50;6280197;22;20019;-73
2022/04/08 11:38:17;;;;;;;3.15;0.60;;;;;;;31.15;20.01;98715.09;6255692;22;19999;-73
2022/04/08 11:40:51;;;;;;;3.15;0.50;;;;;;;31.51;19.18;98693.47;6278073;22;20027;-75
2022/04/08 11:43:23;;;;;;;1.50;0.30;;;;;;;32.03;19.85;98737.44;6278972;22;20004;-72
2022/04/08 11:45:50;;;;;;;2.17;0.52;;;;;;;32.62;17.95;98741.97;6227144;22;20011;-74
2022/04/08 11:48:44;;;;;;;1.85;0.85;;;;;;;30.21;19.53;98707.56;6255890;22;20014;-73
2022/04/08 11:51:19;;;;;;;2.00;0.70;;;;;;;27.91;20.78;98727.81;6234039;22;20329;-72
2022/04/08 11:53:52;;;;;;;3.17;0.82;;;;;;;26.05;22.62;98698.75;6231527;22;20018;-73
2022/04/08 11:57:28;;;;;;;2.40;0.73;;;;;;;25.39;24.38;98731.16;6257525;22;20398;-72
2022/04/08 12:03:17;;;;;;;3.00;0.60;;;;;;;26.69;23.82;98723.78;6266802;22;20004;-72
2022/04/08 12:06:09;;;;;;;3.42;0.68;;;;;;;30.76;21.00;98728.28;6257116;22;20058;-73
2022/04/08 12:08:38;;;;;;;2.85;0.85;;;;;;;33.86;16.93;98726.47;6256376;22;20011;-74
2022/04/08 12:11:41;;;;;;;;;;;;;;;;;;;;;
2022/04/08 12:14:25;;;;;;;;;;;;;;;;;;;;;
2022/04/08 12:23:45;;;;;;;;;;;;;;;;;;;;;
2022/04/08 12:26:15;;;;;;;1.35;0.60;;;;;;;37.42;13.04;98719.38;6285894;22;20232;-73
2022/04/08 12:28:50;;;;;;;;;;;;;;;;;;;;;
2022/04/08 12:31:26;;;;;;;2.78;0.60;;;;;;;39.44;13.07;98718.88;6284719;22;20027;-74
2022/04/08 12:34:13;;;;;;;2.03;0.90;;;;;;;41.27;11.60;98728.66;6234929;22;20019;-76
2022/04/08 12:36:42;;;;;;;2.58;0.98;;;;;;;42.50;10.58;98716.75;6257720;22;20003;-73
2022/04/08 12:39:12;;;;;;;1.55;0.65;;;;;;;43.54;9.65;98725.78;6284145;22;20003;-72
2022/04/08 12:42:07;;;;;;;4.05;0.93;;;;;;;44.10;10.21;98730.25;6254987;22;20007;-74
2022/04/08 12:44:32;;;;;;;2.33;0.90;;;;;;;42.00;9.72;98712.75;6285865;22;20007;-73
2022/04/08 12:47:01;;;;;;;1.83;0.80;;;;;;;40.51;10.92;98707.38;6281294;22;20013;-71
2022/04/08 12:49:26;;;;;;;1.20;0.40;;;;;;;39.95;11.83;98707.81;6286147;22;20119;-72
2022/04/08 12:52:00;;;;;;;4.90;1.20;;;;;;;39.40;10.68;98712.59;6259718;22;20004;-71
2022/04/08 12:54:26;;;;;;;3.63;0.88;;;;;;;37.87;12.14;98707.94;6281308;22;20004;-70
2022/04/08 12:56:54;;;;;;;3.10;0.77;;;;;;;37.34;12.73;98721.84;6233213;22;20014;-69
2022/04/08 12:59:19;;;;;;;3.63;1.20;;;;;;;36.98;12.59;98712.38;6255039;22;20014;-70
2022/04/08 13:01:45;;;;;;;6.00;0.80;;;;;;;37.01;12.30;98711.41;6258031;22;20031;-70
2022/04/08 13:04:18;;;;;;;7.47;1.05;;;;;;;36.91;12.15;98721.31;6257528;22;20011;-69
2022/04/08 13:06:44;;;;;;;1.95;0.90;;;;;;;36.80;12.49;98723.94;6256532;22;20031;-71
2022/04/08 13:09:11;;;;;;;1.80;0.80;;;;;;;35.97;13.09;98716.75;6257516;22;20008;-69
2022/04/08 13:11:39;;;;;;;1.13;0.60;;;;;;;33.78;14.07;98722.34;6255036;22;20022;-69
2022/04/08 13:14:05;;;;;;;2.55;0.75;;;;;;;32.90;14.76;98734.53;6257550;22;20036;-70
2022/04/08 13:16:30;;;;;;;2.17;0.95;;;;;;;32.74;14.62;98721.38;6285328;22;20018;-70